createdAt,value
2019-04-28T00:01:44.449Z,70.80
2019-04-28T00:04:15.594Z,70.70
2019-04-28T00:06:47.030Z,70.00
2019-04-28T00:09:18.970Z,69.80
2019-04-28T00:11:52.698Z,69.80
2019-04-28T00:14:22.339Z,69.70
2019-04-28T00:16:52.534Z,70.00
2019-04-28T00:19:25.376Z,70.10
2019-04-28T00:22:05.933Z,70.50
2019-04-28T00:24:55.297Z,70.10
2019-04-28T00:27:28.659Z,70.00
2019-04-28T00:30:14.617Z,70.40
2019-04-28T00:32:47.097Z,70.20
2019-04-28T00:35:16.712Z,70.10
2019-04-28T00:37:51.669Z,70.70
2019-04-28T00:40:24.341Z,70.60
2019-04-28T00:42:57.968Z,70.50
2019-04-28T00:45:33.107Z,70.90
2019-04-28T00:48:07.991Z,71.80
2019-04-28T00:50:41.377Z,72.20
2019-04-28T00:53:12.401Z,72.10
2019-04-28T00:55:51.631Z,72.20
2019-04-28T00:58:27.132Z,72.10
2019-04-28T01:01:01.481Z,72.00
2019-04-28T01:03:32.611Z,72.50
2019-04-28T01:06:02.114Z,72.30
2019-04-28T01:08:36.480Z,71.90
2019-04-28T01:11:12.627Z,71.80
2019-04-28T01:13:47.818Z,71.70
2019-04-28T01:16:27.274Z,71.00
2019-04-28T01:19:14.756Z,71.00
2019-04-28T01:22:04.155Z,71.20
2019-04-28T01:24:39.797Z,71.20
2019-04-28T01:27:30.547Z,71.40
2019-04-28T01:30:07.983Z,71.60
2019-04-28T01:32:35.567Z,72.10
2019-04-28T01:35:06.761Z,73.00
2019-04-28T01:37:36.264Z,73.10
2019-04-28T01:40:09.422Z,73.40
2019-04-28T01:42:41.243Z,73.30
2019-04-28T01:45:10.994Z,73.20
2019-04-28T01:47:42.016Z,73.30
2019-04-28T01:50:11.695Z,73.10
2019-04-28T01:52:41.354Z,73.30
2019-04-28T01:55:14.955Z,73.50
2019-04-28T01:57:44.373Z,73.90
2019-04-28T02:00:22.881Z,73.90
2019-04-28T02:02:48.193Z,74.40
2019-04-28T02:05:19.683Z,74.20
2019-04-28T02:07:50.575Z,73.90
2019-04-28T02:10:21.802Z,74.80
2019-04-28T02:12:51.495Z,74.20
2019-04-28T02:15:25.759Z,74.20
2019-04-28T02:17:55.315Z,74.30
2019-04-28T02:20:24.889Z,74.40
2019-04-28T02:22:59.913Z,74.70
2019-04-28T02:25:29.802Z,74.90
2019-04-28T02:28:01.254Z,74.20
2019-04-28T02:30:42.181Z,74.40
2019-04-28T02:33:05.228Z,73.70
2019-04-28T02:35:35.736Z,74.10
2019-04-28T02:38:05.267Z,73.30
2019-04-28T02:40:36.728Z,73.10
2019-04-28T02:43:06.602Z,73.40
2019-04-28T02:45:41.206Z,73.50
2019-04-28T02:48:14.654Z,73.20
2019-04-28T02:50:52.844Z,71.90
2019-04-28T02:53:23.983Z,72.90
2019-04-28T02:55:54.705Z,73.60
2019-04-28T02:58:24.207Z,73.40
2019-04-28T03:01:08.298Z,73.90
2019-04-28T03:03:30.635Z,74.90
2019-04-28T03:06:01.476Z,74.40
2019-04-28T03:08:30.750Z,74.70
2019-04-28T03:11:01.093Z,75.70
2019-04-28T03:13:31.820Z,76.50
2019-04-28T03:16:01.834Z,77.20
2019-04-28T03:18:31.899Z,78.00
2019-04-28T03:21:04.222Z,79.00
2019-04-28T03:23:33.994Z,78.80
2019-04-28T03:26:11.382Z,78.80
2019-04-28T03:28:45.232Z,78.80
2019-04-28T03:31:47.704Z,79.90
2019-04-28T03:33:55.660Z,79.60
2019-04-28T03:36:23.764Z,80.30
2019-04-28T03:38:53.455Z,80.00
2019-04-28T03:41:22.931Z,81.70
2019-04-28T03:43:52.997Z,82.10
2019-04-28T03:46:34.008Z,81.50
2019-04-28T03:49:05.532Z,82.60
2019-04-28T03:51:34.965Z,83.30
2019-04-28T03:54:06.375Z,82.70
2019-04-28T03:56:35.798Z,83.70
2019-04-28T03:59:11.060Z,83.00
2019-04-28T04:01:55.979Z,83.30
2019-04-28T04:04:13.191Z,83.30
2019-04-28T04:06:42.735Z,83.30
2019-04-28T04:09:12.201Z,83.10
2019-04-28T04:11:44.316Z,82.90
2019-04-28T04:14:16.449Z,82.60
2019-04-28T04:16:53.203Z,81.80
2019-04-28T04:19:30.289Z,82.40
2019-04-28T04:22:00.197Z,83.40
2019-04-28T04:24:30.649Z,84.80
2019-04-28T04:27:00.881Z,85.00
2019-04-28T04:29:31.481Z,83.00
2019-04-28T04:32:11.674Z,84.50
2019-04-28T04:34:34.983Z,84.10
2019-04-28T04:37:04.512Z,83.80
2019-04-28T04:39:35.014Z,83.90
2019-04-28T04:42:04.619Z,85.20
2019-04-28T04:44:37.997Z,85.30
2019-04-28T04:47:10.879Z,85.20
2019-04-28T04:49:45.054Z,85.00
2019-04-28T04:52:20.632Z,84.90
2019-04-28T04:54:55.628Z,85.30
2019-04-28T04:57:32.695Z,84.00
2019-04-28T05:00:06.135Z,84.90
2019-04-28T05:02:52.058Z,85.30
2019-04-28T05:05:20.301Z,84.80
2019-04-28T05:07:50.800Z,86.10
2019-04-28T05:10:23.282Z,85.30
2019-04-28T05:12:53.710Z,86.50
2019-04-28T05:15:26.741Z,85.10
2019-04-28T05:18:00.193Z,85.60
2019-04-28T05:20:30.312Z,86.10
2019-04-28T05:23:09.612Z,86.10
2019-04-28T05:25:42.320Z,86.40
2019-04-28T05:28:11.760Z,86.80
2019-04-28T05:30:45.310Z,86.60
2019-04-28T05:33:16.544Z,86.80
2019-04-28T05:35:54.554Z,85.30
2019-04-28T05:38:21.651Z,86.00
2019-04-28T05:40:51.306Z,86.30
2019-04-28T05:43:23.322Z,86.40
2019-04-28T05:46:00.597Z,86.70
2019-04-28T05:48:37.610Z,87.60
2019-04-28T05:51:09.440Z,88.40
2019-04-28T05:53:53.744Z,87.90
2019-04-28T05:56:34.215Z,87.00
2019-04-28T05:59:14.957Z,87.40
2019-04-28T06:02:00.470Z,86.90
2019-04-28T06:04:30.475Z,87.90
2019-04-28T06:07:02.875Z,86.80
2019-04-28T06:09:39.840Z,87.60
2019-04-28T06:12:17.342Z,87.20
2019-04-28T06:14:51.095Z,87.70
2019-04-28T06:17:22.888Z,86.50
2019-04-28T06:19:54.203Z,86.30
2019-04-28T06:22:31.141Z,86.70
2019-04-28T06:25:02.636Z,86.80
2019-04-28T06:27:32.757Z,87.50
2019-04-28T06:30:15.045Z,86.30
2019-04-28T06:32:42.045Z,86.50
2019-04-28T06:35:11.614Z,86.90
2019-04-28T06:37:42.181Z,85.90
2019-04-28T06:40:25.442Z,86.60
2019-04-28T06:42:54.111Z,85.80
2019-04-28T06:45:29.950Z,86.50
2019-04-28T06:48:01.219Z,86.60
2019-04-28T06:50:30.807Z,85.80
2019-04-28T06:53:03.014Z,85.20
2019-04-28T06:55:34.132Z,86.60
2019-04-28T06:58:09.366Z,86.30
2019-04-28T07:00:40.640Z,85.10
2019-04-28T07:03:22.607Z,84.80
2019-04-28T07:05:44.673Z,84.00
2019-04-28T07:08:14.804Z,83.40
2019-04-28T07:10:46.480Z,83.20
2019-04-28T07:13:16.036Z,83.50
2019-04-28T07:15:46.566Z,83.50
2019-04-28T07:18:26.364Z,82.70
2019-04-28T07:21:10.379Z,82.80
2019-04-28T07:23:42.540Z,82.60
2019-04-28T07:26:12.774Z,82.50
2019-04-28T07:28:49.719Z,81.80
2019-04-28T07:31:22.018Z,82.20
2019-04-28T07:33:58.319Z,82.30
2019-04-28T07:36:29.533Z,82.50
2019-04-28T07:39:10.038Z,82.20
2019-04-28T07:41:39.284Z,82.50
2019-04-28T07:44:10.418Z,82.60
2019-04-28T07:46:40.639Z,82.40
2019-04-28T07:49:11.911Z,81.10
2019-04-28T07:52:01.580Z,82.00
2019-04-28T07:54:34.986Z,81.10
2019-04-28T07:57:05.844Z,80.40
2019-04-28T07:59:36.819Z,80.40
2019-04-28T08:02:08.306Z,80.70
2019-04-28T08:04:37.662Z,79.60
2019-04-28T08:07:07.157Z,81.20
2019-04-28T08:09:38.487Z,81.50
2019-04-28T08:12:08.486Z,80.60
2019-04-28T08:14:41.762Z,80.80
2019-04-28T08:17:13.885Z,80.60
2019-04-28T08:19:45.641Z,81.10
2019-04-28T08:22:15.213Z,79.60
2019-04-28T08:24:46.321Z,81.50
2019-04-28T08:27:17.734Z,80.30
2019-04-28T08:29:58.785Z,81.50
2019-04-28T08:32:37.338Z,80.30
2019-04-28T08:35:07.450Z,80.00
2019-04-28T08:37:36.930Z,79.50
2019-04-28T08:40:07.913Z,79.70
2019-04-28T08:42:37.451Z,80.20
2019-04-28T08:45:08.120Z,80.50
2019-04-28T08:47:39.877Z,79.70
2019-04-28T08:50:09.776Z,79.20
2019-04-28T08:52:40.180Z,80.00
2019-04-28T08:55:13.959Z,80.10
2019-04-28T08:57:48.952Z,79.20
2019-04-28T09:00:27.221Z,80.60
2019-04-28T09:03:02.683Z,79.50
2019-04-28T09:05:32.128Z,80.50
2019-04-28T09:08:01.852Z,80.20
2019-04-28T09:10:35.947Z,79.40
2019-04-28T09:13:10.421Z,81.00
2019-04-28T09:15:48.733Z,82.00
2019-04-28T09:18:21.104Z,81.50
2019-04-28T09:20:54.347Z,82.00
2019-04-28T09:23:27.028Z,83.00
2019-04-28T09:26:02.106Z,82.30
2019-04-28T09:28:31.626Z,82.40
2019-04-28T09:31:02.508Z,82.20
2019-04-28T09:33:32.682Z,81.50
2019-04-28T09:36:02.910Z,81.30
2019-04-28T09:38:33.419Z,82.10
2019-04-28T09:41:05.184Z,82.00
2019-04-28T09:43:48.576Z,79.70
2019-04-28T09:46:22.643Z,78.70
2019-04-28T09:48:52.292Z,79.10
2019-04-28T09:51:21.876Z,79.80
2019-04-28T09:53:51.519Z,79.50
2019-04-28T09:56:20.915Z,80.50
2019-04-28T09:58:55.068Z,77.50
2019-04-28T10:01:25.550Z,76.40
2019-04-28T10:03:55.225Z,76.50
2019-04-28T10:06:32.990Z,76.50
2019-04-28T10:09:07.278Z,74.90
2019-04-28T10:11:36.909Z,76.60
2019-04-28T10:14:08.916Z,73.30
2019-04-28T10:16:38.420Z,75.50
2019-04-28T10:19:08.863Z,75.50
2019-04-28T10:21:38.312Z,75.10
2019-04-28T10:24:12.633Z,74.40
2019-04-28T10:26:43.169Z,72.20
2019-04-28T10:29:14.502Z,74.10
2019-04-28T10:31:46.475Z,73.70
2019-04-28T10:34:15.965Z,75.40
2019-04-28T10:36:46.259Z,74.30
2019-04-28T10:39:35.530Z,74.90
2019-04-28T10:42:05.550Z,75.50
2019-04-28T10:44:37.879Z,75.40
2019-04-28T10:47:07.821Z,75.70
2019-04-28T10:49:37.732Z,74.90
2019-04-28T10:52:07.199Z,75.30
2019-04-28T10:54:43.852Z,74.20
2019-04-28T10:57:13.337Z,73.00
2019-04-28T10:59:42.731Z,72.40
2019-04-28T11:02:12.151Z,73.00
2019-04-28T11:04:50.120Z,71.40
2019-04-28T11:07:21.169Z,70.60
2019-04-28T11:10:02.192Z,68.40
2019-04-28T11:12:34.781Z,67.70
2019-04-28T11:15:08.940Z,66.50
2019-04-28T11:17:38.948Z,64.30
2019-04-28T11:20:10.456Z,63.70
2019-04-28T11:22:41.009Z,63.90
2019-04-28T11:25:10.533Z,62.70
2019-04-28T11:27:41.298Z,62.30
2019-04-28T11:30:11.112Z,64.70
2019-04-28T11:32:44.492Z,64.50
2019-04-28T11:35:24.742Z,63.90
2019-04-28T11:37:54.282Z,66.10
2019-04-28T11:40:26.151Z,68.70
2019-04-28T11:42:57.009Z,70.90
2019-04-28T11:45:27.600Z,72.10
2019-04-28T11:47:57.191Z,71.20
2019-04-28T11:50:29.059Z,70.90
2019-04-28T11:52:59.815Z,66.80
2019-04-28T11:55:32.226Z,65.90
2019-04-28T11:58:07.321Z,64.40
2019-04-28T12:00:39.200Z,63.70
2019-04-28T12:03:09.684Z,64.20
2019-04-28T12:05:40.779Z,64.30
2019-04-28T12:08:20.791Z,62.30
2019-04-28T12:11:09.562Z,59.50
2019-04-28T12:13:53.810Z,59.40
2019-04-28T12:16:27.662Z,60.10
2019-04-28T12:19:16.660Z,59.20
2019-04-28T12:21:46.188Z,59.80
2019-04-28T12:24:15.690Z,60.10
2019-04-28T12:26:47.279Z,60.30
2019-04-28T12:29:22.326Z,59.10
2019-04-28T12:31:55.404Z,58.80
2019-04-28T12:34:24.925Z,56.90
2019-04-28T12:37:02.550Z,54.80
2019-04-28T12:39:37.066Z,54.10
2019-04-28T12:42:09.555Z,56.90
2019-04-28T12:44:43.690Z,61.90
2019-04-28T12:47:31.250Z,65.40
2019-04-28T12:50:16.683Z,64.90
2019-04-28T12:52:52.413Z,62.90
2019-04-28T12:55:27.784Z,62.10
2019-04-28T12:57:57.832Z,64.20
2019-04-28T13:00:40.438Z,64.80
2019-04-28T13:03:14.498Z,64.70
2019-04-28T13:06:02.398Z,61.90
2019-04-28T13:08:27.039Z,60.40
2019-04-28T13:10:57.634Z,59.10
2019-04-28T13:13:28.734Z,59.70
2019-04-28T13:16:00.694Z,59.10
2019-04-28T13:18:34.404Z,56.60
2019-04-28T13:21:08.725Z,53.70
2019-04-28T13:23:40.722Z,51.80
2019-04-28T13:26:16.128Z,50.90
2019-04-28T13:28:51.899Z,49.00
2019-04-28T13:31:27.507Z,46.40
2019-04-28T13:34:09.153Z,45.60
2019-04-28T13:36:38.654Z,46.70
2019-04-28T13:39:11.327Z,46.70
2019-04-28T13:41:42.229Z,49.70
2019-04-28T13:44:13.302Z,49.70
2019-04-28T13:46:45.387Z,49.70
2019-04-28T13:49:18.943Z,50.20
2019-04-28T13:51:51.563Z,50.30
2019-04-28T13:54:22.693Z,54.60
2019-04-28T13:56:55.134Z,59.00
2019-04-28T13:59:24.765Z,60.50
2019-04-28T14:01:57.374Z,62.00
2019-04-28T14:04:29.535Z,62.90
2019-04-28T14:06:59.073Z,62.80
2019-04-28T14:09:33.883Z,63.50
2019-04-28T14:12:05.694Z,63.90
2019-04-28T14:14:37.253Z,64.60
2019-04-28T14:17:11.324Z,65.10
2019-04-28T14:19:38.387Z,66.20
2019-04-28T14:22:08.397Z,66.80
2019-04-28T14:24:42.215Z,67.40
2019-04-28T14:27:13.684Z,66.00
2019-04-28T14:29:45.561Z,65.80
2019-04-28T14:32:20.011Z,66.40
2019-04-28T14:34:51.904Z,65.80
2019-04-28T14:37:22.742Z,64.30
2019-04-28T14:39:53.428Z,61.50
2019-04-28T14:42:24.352Z,60.90
2019-04-28T14:44:54.816Z,59.90
2019-04-28T14:47:25.206Z,59.10
2019-04-28T14:49:54.672Z,58.00
2019-04-28T14:52:25.112Z,57.50
2019-04-28T14:54:54.538Z,57.20
2019-04-28T14:57:29.030Z,58.00
2019-04-28T15:00:03.533Z,56.70
2019-04-28T15:02:40.782Z,56.30
2019-04-28T15:05:26.215Z,55.00
2019-04-28T15:08:08.531Z,54.80
2019-04-28T15:10:45.007Z,55.30
2019-04-28T15:13:24.582Z,56.20
2019-04-28T15:15:58.499Z,55.10
2019-04-28T15:18:32.490Z,55.80
2019-04-28T15:21:13.386Z,56.60
2019-04-28T15:23:49.431Z,55.90
2019-04-28T15:26:28.003Z,56.00
2019-04-28T15:29:02.631Z,56.00
2019-04-28T15:31:39.012Z,55.80
2019-04-28T15:34:10.391Z,55.90
2019-04-28T15:36:45.973Z,54.60
2019-04-28T15:39:22.010Z,54.70
2019-04-28T15:41:59.821Z,56.60
2019-04-28T15:44:30.934Z,55.50
2019-04-28T15:47:00.572Z,55.40
2019-04-28T15:49:34.209Z,54.70
2019-04-28T15:52:08.252Z,52.30
2019-04-28T15:54:45.261Z,52.60
2019-04-28T15:57:20.844Z,52.40
2019-04-28T15:59:54.651Z,53.80
2019-04-28T16:02:26.567Z,56.50
2019-04-28T16:04:59.908Z,58.70
2019-04-28T16:07:35.491Z,60.30
2019-04-28T16:10:06.813Z,60.80
2019-04-28T16:12:39.436Z,62.80
2019-04-28T16:15:18.268Z,64.20
2019-04-28T16:17:54.035Z,65.50
2019-04-28T16:20:25.885Z,65.20
2019-04-28T16:22:58.641Z,66.80
2019-04-28T16:25:51.978Z,67.80
2019-04-28T16:28:30.054Z,68.50
2019-04-28T16:31:18.916Z,68.00
2019-04-28T16:33:52.510Z,70.90
2019-04-28T16:36:25.578Z,70.80
2019-04-28T16:39:12.805Z,70.50
2019-04-28T16:41:47.332Z,69.50
2019-04-28T16:44:29.666Z,68.10
2019-04-28T16:47:03.201Z,69.30
2019-04-28T16:49:44.334Z,71.50
2019-04-28T16:52:22.079Z,72.50
2019-04-28T16:54:53.310Z,69.10
2019-04-28T16:57:27.466Z,65.00
2019-04-28T17:00:02.538Z,65.30
2019-04-28T17:02:41.347Z,64.30
2019-04-28T17:05:13.999Z,65.30
2019-04-28T17:07:53.581Z,65.50
2019-04-28T17:10:31.875Z,67.00
2019-04-28T17:13:13.987Z,65.60
2019-04-28T17:15:46.348Z,63.40
2019-04-28T17:18:18.441Z,64.20
2019-04-28T17:20:54.034Z,64.20
2019-04-28T17:23:28.951Z,65.20
2019-04-28T17:26:15.297Z,64.90
2019-04-28T17:28:51.652Z,64.90
2019-04-28T17:31:29.451Z,64.70
2019-04-28T17:34:06.825Z,64.00
2019-04-28T17:36:52.508Z,65.30
2019-04-28T17:39:31.614Z,64.70
2019-04-28T17:42:29.295Z,66.60
2019-04-28T17:45:11.631Z,65.90
2019-04-28T17:47:56.939Z,64.80
2019-04-28T17:53:51.486Z,64.70
2019-04-28T17:56:34.339Z,68.10
2019-04-28T17:59:19.641Z,69.60
2019-04-28T18:02:02.151Z,70.80
2019-04-28T18:04:45.516Z,70.50
2019-04-28T18:07:32.436Z,71.20
2019-04-28T18:10:12.834Z,69.70
2019-04-28T18:16:13.367Z,69.60
2019-04-28T18:19:01.955Z,69.90
2019-04-28T18:21:33.531Z,70.20
2019-04-28T18:24:16.799Z,69.70
2019-04-28T18:26:59.632Z,69.50
2019-04-28T18:29:37.909Z,70.40
2019-04-28T18:32:59.821Z,68.70
2019-04-28T18:35:49.313Z,69.60
2019-04-28T18:38:34.798Z,69.30
2019-04-28T18:47:10.912Z,73.30
2019-04-28T18:49:46.521Z,74.50
2019-04-28T18:52:17.572Z,74.80
2019-04-28T18:54:49.877Z,75.10
2019-04-28T18:57:22.015Z,74.70
2019-04-28T18:59:53.556Z,73.50
2019-04-28T19:02:50.504Z,72.10
2019-04-28T19:05:28.900Z,71.10
2019-04-28T19:08:26.905Z,70.50
2019-04-28T19:11:10.833Z,70.70
2019-04-28T19:15:26.312Z,71.40
2019-04-28T19:16:29.250Z,71.10
2019-04-28T19:19:14.058Z,71.50
2019-04-28T19:21:57.289Z,72.10
2019-04-28T19:24:31.249Z,71.60
2019-04-28T19:27:13.907Z,71.10
2019-04-28T19:29:57.637Z,71.20
2019-04-28T19:32:36.154Z,70.80
2019-04-28T19:35:20.996Z,70.70
2019-04-28T19:37:55.288Z,70.00
2019-04-28T19:40:34.227Z,70.20
2019-04-28T19:43:08.985Z,70.60
2019-04-28T19:46:04.519Z,70.20
2019-04-28T19:48:59.881Z,70.30
2019-04-28T19:51:36.986Z,70.60
2019-04-28T19:54:26.331Z,70.90
2019-04-28T19:57:19.484Z,71.50
2019-04-28T20:00:31.740Z,72.10
2019-04-28T20:03:15.806Z,71.90
2019-04-28T20:05:45.256Z,71.90
2019-04-28T20:08:18.523Z,72.40
2019-04-28T20:10:51.841Z,72.90
2019-04-28T20:13:47.707Z,72.90
2019-04-28T20:16:23.109Z,73.10
2019-04-28T20:18:58.292Z,73.30
2019-04-28T20:21:28.904Z,73.10
2019-04-28T20:24:01.964Z,71.50
2019-04-28T20:26:34.131Z,69.30
2019-04-28T20:29:04.670Z,70.20
2019-04-28T20:31:38.063Z,70.90
2019-04-28T20:34:10.453Z,71.30
2019-04-28T20:36:54.377Z,71.60
2019-04-28T20:39:25.618Z,71.70
2019-04-28T20:41:59.640Z,70.80
2019-04-28T20:44:38.966Z,70.80
2019-04-28T20:47:08.518Z,68.80
2019-04-28T20:49:40.979Z,68.70
2019-04-28T20:52:16.580Z,70.40
2019-04-28T20:54:53.436Z,70.50
2019-04-28T20:57:30.486Z,70.60
2019-04-28T21:00:02.180Z,70.20
2019-04-28T21:02:41.973Z,70.30
2019-04-28T21:05:19.252Z,70.20
2019-04-28T21:07:55.470Z,70.30
2019-04-28T21:10:38.151Z,70.40
2019-04-28T21:13:19.753Z,70.00
2019-04-28T21:15:58.105Z,70.50
2019-04-28T21:18:34.962Z,71.50
2019-04-28T21:21:12.899Z,72.20
2019-04-28T21:23:46.541Z,72.50
2019-04-28T21:26:21.740Z,72.20
2019-04-28T21:29:04.134Z,72.50
2019-04-28T21:31:35.265Z,73.30
2019-04-28T21:34:21.026Z,71.60
2019-04-28T21:36:51.510Z,72.10
2019-04-28T21:39:29.879Z,73.20
2019-04-28T21:42:05.185Z,73.70
2019-04-28T21:44:38.976Z,73.30
2019-04-28T21:47:33.248Z,72.60
2019-04-28T21:50:05.673Z,72.50
2019-04-28T21:52:40.011Z,72.00
2019-04-28T21:55:12.380Z,72.00
2019-04-28T21:57:43.580Z,72.40
2019-04-28T22:00:23.976Z,73.60
2019-04-28T22:03:14.776Z,75.10
2019-04-28T22:05:51.246Z,75.40
2019-04-28T22:08:25.192Z,75.50
2019-04-28T22:10:58.571Z,75.90
2019-04-28T22:13:29.592Z,76.20
2019-04-28T22:15:59.139Z,76.90
2019-04-28T22:18:43.392Z,77.40
2019-04-28T22:21:09.475Z,77.70
2019-04-28T22:23:52.350Z,78.10
2019-04-28T22:26:44.151Z,78.70
2019-04-28T22:29:22.385Z,79.10
2019-04-28T22:31:53.974Z,79.30
2019-04-28T22:34:24.421Z,79.50
2019-04-28T22:36:57.146Z,79.70
2019-04-28T22:39:28.555Z,80.10
2019-04-28T22:42:02.811Z,79.10
2019-04-28T22:44:34.467Z,80.60
2019-04-28T22:47:06.013Z,81.70
2019-04-28T22:49:37.442Z,82.50
2019-04-28T22:52:08.555Z,82.90
2019-04-28T22:54:45.220Z,82.60
2019-04-28T22:57:18.295Z,82.40
2019-04-28T22:59:54.950Z,82.10
2019-04-28T23:02:26.458Z,81.80
2019-04-28T23:05:02.832Z,82.00
2019-04-28T23:07:34.926Z,82.10
2019-04-28T23:10:07.293Z,82.30
2019-04-28T23:12:46.888Z,82.80
2019-04-28T23:15:17.323Z,83.60
2019-04-28T23:17:51.717Z,83.30
2019-04-28T23:20:25.418Z,82.60
2019-04-28T23:22:58.615Z,83.00
2019-04-28T23:25:30.932Z,83.40
2019-04-28T23:28:01.080Z,82.80
2019-04-28T23:30:46.274Z,82.20
2019-04-28T23:33:16.197Z,82.40
2019-04-28T23:35:46.512Z,82.40
2019-04-28T23:38:17.528Z,82.30
2019-04-28T23:40:51.486Z,83.00
2019-04-28T23:43:23.153Z,83.90
2019-04-28T23:45:52.586Z,84.30
2019-04-28T23:48:22.135Z,84.70
2019-04-28T23:50:55.330Z,85.00
2019-04-28T23:53:45.172Z,85.20
2019-04-28T23:56:17.766Z,85.30
2019-04-28T23:58:48.225Z,85.10
